Time;durP1;ratioP1;P1;durP2;ratioP2;P2;SDS_P1;SDS_P2;PMS_P1;PMS_P2;Temp;Humidity;BMP_temperature;BMP_pressure;BME280_temperature;BME280_humidity;BME280_pressure;Samples;Min_cycle;Max_cycle;Signal;HPM_P1;HPM_P2
2022/08/31 00:04:31;;;;;;;2.53;1.60;;;;;17.10;101488.00;;;;12817655;22;20170;-78
2022/08/31 00:09:33;;;;;;;5.93;1.83;;;;;17.10;101480.00;;;;12794194;22;20197;-77
2022/08/31 00:14:34;;;;;;;4.35;1.75;;;;;17.10;101479.00;;;;12791529;22;20253;-78
2022/08/31 00:19:35;;;;;;;3.23;1.63;;;;;17.00;101475.00;;;;12838479;22;20177;-78
2022/08/31 00:24:37;;;;;;;5.50;1.80;;;;;17.00;101476.00;;;;12769732;22;20174;-77
2022/08/31 00:29:38;;;;;;;5.77;1.60;;;;;17.00;101472.00;;;;12837254;22;20195;-78
2022/08/31 00:34:39;;;;;;;2.40;1.70;;;;;17.10;101470.00;;;;12794693;22;20174;-78
2022/08/31 00:39:44;;;;;;;2.00;1.80;;;;;17.20;101469.00;;;;12815721;22;20709;-78
2022/08/31 00:44:46;;;;;;;3.60;1.80;;;;;17.20;101466.00;;;;12769287;22;20166;-78
2022/08/31 00:49:50;;;;;;;2.97;1.60;;;;;17.30;101469.00;;;;12842339;22;20506;-78
2022/08/31 00:54:55;;;;;;;3.03;1.95;;;;;17.30;101459.00;;;;12816693;22;20908;-78
2022/08/31 00:59:59;;;;;;;7.97;2.10;;;;;17.20;101467.00;;;;12766723;22;20614;-77
2022/08/31 01:05:00;;;;;;;1.97;1.87;;;;;17.20;101461.00;;;;12862977;22;20190;-78
2022/08/31 01:10:02;;;;;;;4.67;2.03;;;;;17.20;101461.00;;;;12861900;22;20818;-78
2022/08/31 01:15:06;;;;;;;4.70;2.07;;;;;17.20;101459.00;;;;12792323;22;20260;-78
2022/08/31 01:20:29;;;;;;;3.80;1.87;;;;;17.30;101459.00;;;;12792932;22;20214;-78
2022/08/31 01:25:30;;;;;;;3.83;1.90;;;;;17.30;101457.00;;;;12836456;22;20186;-77
2022/08/31 01:30:35;;;;;;;3.30;2.25;;;;;17.30;101448.00;;;;12863402;22;20166;-78
2022/08/31 01:35:38;;;;;;;7.60;2.50;;;;;17.30;101462.00;;;;12837333;22;20163;-78
2022/08/31 01:40:53;;;;;;;2.70;1.90;;;;;17.20;101455.00;;;;12792384;22;20170;-77
2022/08/31 01:45:54;;;;;;;3.67;2.03;;;;;17.20;101459.00;;;;12792282;22;20194;-77
2022/08/31 01:50:56;;;;;;;4.15;2.20;;;;;17.10;101467.00;;;;12793435;22;20260;-78
2022/08/31 01:55:57;;;;;;;3.33;2.07;;;;;17.10;101467.00;;;;12791429;22;20180;-77
2022/08/31 02:00:59;;;;;;;2.55;2.15;;;;;17.10;101463.00;;;;12818079;22;20189;-77
2022/08/31 02:06:12;;;;;;;5.78;2.00;;;;;17.10;101465.00;;;;12816336;23;20601;-77
2022/08/31 02:11:14;;;;;;;4.67;2.47;;;;;17.10;101459.00;;;;12769510;22;20676;-78
2022/08/31 02:16:15;;;;;;;2.90;2.20;;;;;17.20;101458.00;;;;12793337;22;20185;-78
2022/08/31 02:21:17;;;;;;;2.97;2.20;;;;;17.20;101462.00;;;;12818085;22;20174;-78
2022/08/31 02:26:19;;;;;;;4.97;2.42;;;;;17.20;101462.00;;;;12815794;22;20198;-77
2022/08/31 02:31:20;;;;;;;5.33;2.43;;;;;17.20;101467.00;;;;12818178;22;20204;-78
2022/08/31 02:36:30;;;;;;;2.40;2.20;;;;;17.20;101468.00;;;;12790843;22;20244;-78
2022/08/31 02:41:33;;;;;;;4.63;2.67;;;;;17.20;101474.00;;;;12817574;22;20689;-78
2022/08/31 02:46:34;;;;;;;6.63;2.50;;;;;17.30;101475.00;;;;12792200;22;20202;-78
2022/08/31 02:51:54;;;;;;;4.60;2.80;;;;;17.20;101467.00;;;;12817445;22;20177;-78
2022/08/31 02:56:56;;;;;;;2.65;2.40;;;;;17.20;101462.00;;;;12792497;22;20178;-78
2022/08/31 03:01:57;;;;;;;4.60;2.75;;;;;17.20;101468.00;;;;12816452;22;20181;-78
2022/08/31 03:06:58;;;;;;;4.10;2.50;;;;;17.20;101478.00;;;;12862199;22;20192;-77
2022/08/31 03:12:00;;;;;;;7.07;3.03;;;;;17.10;101472.00;;;;12813867;22;20233;-78
2022/08/31 03:17:02;;;;;;;2.73;2.47;;;;;17.10;101470.00;;;;12767227;22;20743;-78
2022/08/31 03:22:03;;;;;;;3.50;3.13;;;;;17.10;101468.00;;;;12791730;22;20656;-77
2022/08/31 03:27:05;;;;;;;3.10;2.63;;;;;17.00;101474.00;;;;12864026;22;20215;-77
2022/08/31 03:32:06;;;;;;;3.77;2.70;;;;;17.00;101476.00;;;;12817552;22;20159;-77
2022/08/31 03:37:11;;;;;;;6.30;2.90;;;;;16.90;101469.00;;;;12817353;22;20194;-77
2022/08/31 03:42:14;;;;;;;5.93;3.20;;;;;16.90;101471.00;;;;12839774;22;20166;-77
2022/08/31 03:47:16;;;;;;;7.38;3.17;;;;;16.80;101475.00;;;;12863631;22;20186;-77
2022/08/31 03:52:20;;;;;;;3.35;2.95;;;;;16.80;101472.00;;;;12864588;22;20174;-78
2022/08/31 03:57:29;;;;;;;4.80;3.20;;;;;16.80;101465.00;;;;12840525;22;20170;-77
2022/08/31 04:02:36;;;;;;;5.67;3.33;;;;;16.80;101472.00;;;;12840119;22;20300;-77
2022/08/31 04:07:57;;;;;;;5.00;3.10;;;;;16.80;101464.00;;;;12826731;22;20190;-78
2022/08/31 04:13:24;;;;;;;4.43;3.23;;;;;16.70;101480.00;;;;12865820;22;20193;-77
2022/08/31 04:18:50;;;;;;;3.77;2.93;;;;;16.70;101474.00;;;;12798861;22;20182;-78
2022/08/31 04:23:52;;;;;;;4.87;3.13;;;;;16.70;101479.00;;;;12817262;22;20641;-78
2022/08/31 04:28:55;;;;;;;3.43;3.13;;;;;16.60;101483.00;;;;12837399;22;20645;-78
2022/08/31 04:33:56;;;;;;;6.87;3.40;;;;;16.60;101487.00;;;;12816272;22;20174;-77
2022/08/31 04:39:00;;;;;;;4.97;3.70;;;;;16.60;101489.00;;;;12817857;22;20800;-78
2022/08/31 04:44:03;;;;;;;5.93;2.93;;;;;16.50;101498.00;;;;12816825;22;20606;-78
2022/08/31 04:49:08;;;;;;;3.80;2.97;;;;;16.50;101499.00;;;;12792486;22;20191;-77
2022/08/31 04:54:11;;;;;;;3.57;3.00;;;;;16.40;101496.00;;;;12838694;22;20234;-78
2022/08/31 04:59:15;;;;;;;3.37;2.90;;;;;16.40;101502.00;;;;12841737;22;20182;-78
2022/08/31 05:04:36;;;;;;;4.03;2.77;;;;;16.30;101508.00;;;;12795776;22;20591;-78
2022/08/31 05:09:38;;;;;;;5.50;3.30;;;;;16.30;101513.00;;;;12792685;22;20194;-77
2022/08/31 05:14:39;;;;;;;3.67;3.37;;;;;16.20;101521.00;;;;12792407;22;20905;-77
2022/08/31 05:19:53;;;;;;;6.47;3.10;;;;;16.20;101518.00;;;;12791612;22;20235;-77
2022/08/31 05:24:55;;;;;;;4.00;3.30;;;;;16.20;101516.00;;;;12792420;22;20261;-78
2022/08/31 05:29:56;;;;;;;3.77;3.40;;;;;16.10;101513.00;;;;12790521;22;20173;-78
2022/08/31 05:35:24;;;;;;;4.80;3.30;;;;;16.10;101522.00;;;;12790223;22;20228;-78
2022/08/31 05:40:26;;;;;;;6.67;3.60;;;;;16.20;101520.00;;;;12791967;22;20229;-78
2022/08/31 05:45:29;;;;;;;5.73;3.20;;;;;16.20;101518.00;;;;12768618;22;20802;-78
2022/08/31 05:50:31;;;;;;;3.70;3.40;;;;;16.10;101516.00;;;;12836490;22;20166;-78
2022/08/31 05:55:35;;;;;;;3.60;3.00;;;;;16.20;101510.00;;;;12863759;22;20193;-77
2022/08/31 06:00:38;;;;;;;3.73;3.40;;;;;16.30;101517.00;;;;12812380;22;20162;-78
2022/08/31 06:05:59;;;;;;;5.73;3.80;;;;;16.40;101524.00;;;;12862094;22;20213;-78
2022/08/31 06:11:02;;;;;;;10.37;3.93;;;;;16.50;101518.00;;;;12791682;22;20170;-78
2022/08/31 06:16:05;;;;;;;6.97;4.13;;;;;16.50;101522.00;;;;12791884;22;20181;-77
2022/08/31 06:21:11;;;;;;;5.50;4.03;;;;;16.60;101525.00;;;;12816077;22;20297;-78
2022/08/31 06:26:14;;;;;;;5.67;4.00;;;;;16.70;101520.00;;;;12860053;22;20438;-78
2022/08/31 06:31:22;;;;;;;3.93;3.63;;;;;16.70;101536.00;;;;12790260;22;20170;-78
2022/08/31 06:36:26;;;;;;;6.40;4.03;;;;;16.80;101529.00;;;;12858366;22;20198;-78
2022/08/31 06:41:41;;;;;;;5.90;3.70;;;;;17.00;101537.00;;;;12784153;22;20194;-77
2022/08/31 06:47:01;;;;;;;4.45;3.95;;;;;17.30;101538.00;;;;12807243;22;20201;-77
2022/08/31 06:52:07;;;;;;;9.90;4.43;;;;;17.70;101553.00;;;;12830332;22;20177;-77
2022/08/31 06:57:10;;;;;;;4.75;3.63;;;;;17.60;101563.00;;;;12819330;22;20711;-78
2022/08/31 07:02:50;;;;;;;7.38;4.13;;;;;17.80;101572.00;;;;12833620;22;20228;-77
2022/08/31 07:07:58;;;;;;;6.13;3.95;;;;;18.50;101578.00;;;;12860510;22;20197;-77
2022/08/31 07:13:00;;;;;;;6.38;4.55;;;;;19.30;101585.00;;;;12790093;22;20186;-77
2022/08/31 07:18:01;;;;;;;3.60;3.30;;;;;20.00;101579.00;;;;12812736;22;20177;-77
2022/08/31 07:23:05;;;;;;;4.72;3.35;;;;;20.00;101588.00;;;;12786532;22;20252;-77
2022/08/31 07:28:12;;;;;;;3.72;3.38;;;;;20.10;101588.00;;;;12855919;22;20579;-77
2022/08/31 07:33:15;;;;;;;4.60;3.45;;;;;20.10;101585.00;;;;12784153;22;20260;-77
2022/08/31 07:43:44;;;;;;;4.78;3.60;;;;;20.30;101584.00;;;;12810552;22;20209;-76
2022/08/31 07:48:45;;;;;;;4.18;3.50;;;;;20.60;101588.00;;;;12785713;22;20197;-77
2022/08/31 07:53:54;;;;;;;4.22;3.28;;;;;20.60;101601.00;;;;12828849;22;20401;-77
2022/08/31 07:59:06;;;;;;;3.72;3.35;;;;;20.70;101609.00;;;;12849757;22;20171;-77
2022/08/31 08:04:17;;;;;;;5.38;3.95;;;;;20.70;101595.00;;;;12811837;22;20170;-77
2022/08/31 08:09:37;;;;;;;6.10;3.47;;;;;21.40;101600.00;;;;12815166;22;20194;-77
2022/08/31 08:14:56;;;;;;;5.97;3.83;;;;;21.90;101596.00;;;;12813667;22;20170;-77
2022/08/31 08:20:21;;;;;;;6.82;3.83;;;;;22.30;101599.00;;;;12834041;22;20731;-77
2022/08/31 08:25:38;;;;;;;6.60;3.33;;;;;22.60;101596.00;;;;12860506;22;20277;-77
2022/08/31 08:31:04;;;;;;;4.35;3.92;;;;;23.10;101605.00;;;;12857579;22;20285;-78
2022/08/31 08:36:07;;;;;;;4.75;3.85;;;;;23.70;101595.00;;;;12857750;22;20201;-77
2022/08/31 08:41:17;;;;;;;3.30;3.03;;;;;23.80;101604.00;;;;12783958;22;20170;-77
2022/08/31 08:46:42;;;;;;;5.05;3.45;;;;;23.10;101598.00;;;;12811764;22;20285;-77
2022/08/31 08:51:49;;;;;;;5.55;3.40;;;;;23.80;101594.00;;;;12838481;22;20676;-78
2022/08/31 08:56:55;;;;;;;7.40;3.45;;;;;25.00;101589.00;;;;12810250;22;20757;-77
2022/08/31 09:02:03;;;;;;;3.75;3.40;;;;;24.60;101593.00;;;;12834067;22;20167;-78
2022/08/31 09:07:25;;;;;;;5.10;3.28;;;;;24.50;101593.00;;;;12853410;22;20194;-77
2022/08/31 09:12:57;;;;;;;8.75;3.53;;;;;24.70;101587.00;;;;12833276;22;20237;-76
2022/08/31 09:18:17;;;;;;;5.72;3.60;;;;;25.10;101594.00;;;;12783256;22;20185;-77
2022/08/31 09:23:22;;;;;;;4.10;3.70;;;;;25.50;101602.00;;;;12851708;22;20170;-77
2022/08/31 09:28:36;;;;;;;12.93;3.60;;;;;26.00;101589.00;;;;12819987;22;20292;-77
2022/08/31 09:33:49;;;;;;;6.22;3.08;;;;;26.20;101593.00;;;;12772281;22;20178;-77
2022/08/31 09:38:51;;;;;;;4.93;3.38;;;;;27.40;101585.00;;;;12818722;22;20820;-77
2022/08/31 09:43:54;;;;;;;5.00;3.50;;;;;28.30;101576.00;;;;12799381;22;20159;-77
2022/08/31 09:48:58;;;;;;;9.77;3.40;;;;;28.30;101585.00;;;;12810413;22;20679;-78
2022/08/31 09:59:48;;;;;;;4.75;3.10;;;;;27.70;101569.00;;;;12811540;22;20177;-78
2022/08/31 10:04:53;;;;;;;7.72;3.80;;;;;27.60;101573.00;;;;12857847;22;20190;-77
2022/08/31 10:10:07;;;;;;;5.65;2.95;;;;;27.60;101567.00;;;;12807430;22;20241;-77
2022/08/31 10:15:32;;;;;;;6.00;3.15;;;;;28.00;101563.00;;;;12810378;22;20174;-77
2022/08/31 10:20:37;;;;;;;6.57;2.88;;;;;28.30;101564.00;;;;12830219;22;20276;-77
2022/08/31 10:25:45;;;;;;;5.85;3.67;;;;;28.50;101564.00;;;;12766392;22;20200;-77
2022/08/31 10:31:06;;;;;;;9.93;3.65;;;;;28.70;101561.00;;;;12826481;22;20171;-77
2022/08/31 10:36:08;;;;;;;5.13;3.08;;;;;28.80;101560.00;;;;12807112;22;20264;-77
2022/08/31 10:41:26;;;;;;;8.75;3.28;;;;;28.90;101565.00;;;;12804320;22;20830;-77
2022/08/31 10:46:31;;;;;;;4.90;3.67;;;;;28.70;101559.00;;;;12853683;22;20201;-77
2022/08/31 10:51:33;;;;;;;4.95;3.50;;;;;28.00;101555.00;;;;12824772;22;20162;-77
2022/08/31 10:56:58;;;;;;;8.88;3.15;;;;;27.60;101562.00;;;;12806372;22;20602;-77
2022/08/31 11:02:36;;;;;;;7.53;3.50;;;;;27.80;101548.00;;;;12782624;22;20170;-78
2022/08/31 11:07:56;;;;;;;6.50;3.42;;;;;28.40;101551.00;;;;12853842;22;20190;-77
2022/08/31 11:13:07;;;;;;;10.38;3.20;;;;;28.90;101556.00;;;;12831578;22;20221;-77
2022/08/31 11:18:23;;;;;;;6.82;3.42;;;;;29.00;101547.00;;;;12849828;22;20468;-76
2022/08/31 11:23:35;;;;;;;5.28;3.28;;;;;29.50;101544.00;;;;12775871;22;20510;-77
2022/08/31 11:28:49;;;;;;;6.22;3.25;;;;;29.70;101540.00;;;;12786752;22;20210;-77
2022/08/31 11:34:14;;;;;;;7.28;3.83;;;;;29.70;101525.00;;;;12800843;22;20182;-77
2022/08/31 11:39:34;;;;;;;7.43;3.90;;;;;29.90;101515.00;;;;12828110;22;20190;-77
2022/08/31 11:44:44;;;;;;;5.28;4.00;;;;;30.20;101522.00;;;;12828604;22;20166;-77
2022/08/31 11:49:49;;;;;;;7.25;3.13;;;;;29.80;101507.00;;;;12785051;22;20724;-77
2022/08/31 11:54:51;;;;;;;6.40;4.18;;;;;29.90;101510.00;;;;12805907;22;20166;-78
2022/08/31 11:59:57;;;;;;;7.68;4.05;;;;;29.60;101492.00;;;;12787150;22;20537;-77
2022/08/31 12:05:02;;;;;;;6.50;3.40;;;;;30.10;101495.00;;;;12852358;22;20163;-77
2022/08/31 12:10:13;;;;;;;6.78;4.38;;;;;30.60;101499.00;;;;12811334;22;20178;-78
2022/08/31 12:15:33;;;;;;;6.40;4.43;;;;;30.30;101494.00;;;;12789271;22;20185;-78
2022/08/31 12:26:36;;;;;;;5.93;4.63;;;;;29.80;101486.00;;;;12814616;22;20284;-77
2022/08/31 12:32:06;;;;;;;8.40;4.50;;;;;30.00;101479.00;;;;12834613;22;20222;-77
2022/08/31 12:37:38;;;;;;;5.85;3.97;;;;;30.60;101487.00;;;;12831709;22;20196;-77
2022/08/31 12:43:04;;;;;;;5.85;3.90;;;;;30.80;101473.00;;;;12824501;22;20260;-77
2022/08/31 12:48:16;;;;;;;6.00;4.20;;;;;30.90;101473.00;;;;12763477;22;20190;-78
2022/08/31 12:53:33;;;;;;;7.85;4.03;;;;;31.20;101473.00;;;;12784103;22;20265;-77
2022/08/31 12:59:02;;;;;;;5.63;4.35;;;;;31.10;101475.00;;;;12858259;22;20197;-77
2022/08/31 13:04:03;;;;;;;7.03;5.70;;;;;30.80;101467.00;;;;12800461;22;20184;-77
2022/08/31 13:09:05;;;;;;;7.53;5.55;;;;;30.60;101456.00;;;;12854098;22;20221;-77
2022/08/31 13:14:19;;;;;;;7.43;6.38;;;;;31.40;101459.00;;;;12831000;22;20185;-78
2022/08/31 13:19:25;;;;;;;11.48;7.65;;;;;32.00;101450.00;;;;12810027;22;20204;-77
2022/08/31 13:24:30;;;;;;;16.35;8.85;;;;;32.80;101454.00;;;;12804527;22;20166;-77
2022/08/31 13:29:39;;;;;;;14.88;10.07;;;;;33.70;101459.00;;;;12782702;22;20201;-77
2022/08/31 13:34:41;;;;;;;18.13;12.32;;;;;33.00;101449.00;;;;12822493;22;20167;-77
2022/08/31 13:39:44;;;;;;;16.65;13.60;;;;;32.60;101450.00;;;;12809916;22;20232;-77
2022/08/31 13:44:52;;;;;;;20.27;15.23;;;;;33.50;101433.00;;;;12783951;22;20481;-77
2022/08/31 13:50:18;;;;;;;19.80;13.18;;;;;33.80;101435.00;;;;12829039;22;20312;-77
2022/08/31 13:55:34;;;;;;;17.92;13.07;;;;;34.80;101445.00;;;;12812313;22;20170;-78
2022/08/31 14:00:41;;;;;;;14.98;11.25;;;;;34.20;101424.00;;;;12810216;22;20232;-77
2022/08/31 14:05:43;;;;;;;10.65;8.95;;;;;35.20;101425.00;;;;12806847;22;21098;-77
2022/08/31 14:10:46;;;;;;;8.85;7.32;;;;;34.90;101421.00;;;;12782786;22;20680;-76
2022/08/31 14:15:55;;;;;;;7.18;4.53;;;;;33.80;101426.00;;;;12847608;22;20182;-77
2022/08/31 14:21:05;;;;;;;6.85;4.15;;;;;35.50;101407.00;;;;12783122;22;20261;-77
2022/08/31 14:26:26;;;;;;;6.90;4.20;;;;;35.10;101408.00;;;;12787242;22;20189;-77
2022/08/31 14:31:32;;;;;;;5.85;4.03;;;;;33.50;101402.00;;;;12852951;22;20450;-77
2022/08/31 14:36:43;;;;;;;6.47;4.35;;;;;32.70;101397.00;;;;12832724;22;20193;-77
2022/08/31 14:41:44;;;;;;;6.43;4.00;;;;;34.30;101385.00;;;;12807929;22;20178;-77
2022/08/31 14:46:46;;;;;;;6.65;4.38;;;;;35.40;101394.00;;;;12808673;23;20228;-77
2022/08/31 14:51:47;;;;;;;5.55;4.20;;;;;34.80;101400.00;;;;12835516;22;20204;-77
2022/08/31 14:56:50;;;;;;;5.97;3.63;;;;;32.50;101400.00;;;;12759356;22;20173;-77
2022/08/31 15:01:51;;;;;;;8.77;5.80;;;;;30.90;101392.00;;;;12784317;22;20506;-77
2022/08/31 15:06:57;;;;;;;12.30;7.53;;;;;30.20;101393.00;;;;12805402;22;20284;-77
2022/08/31 15:12:01;;;;;;;13.77;6.18;;;;;29.60;101385.00;;;;12773248;22;20189;-76
2022/08/31 15:17:05;;;;;;;7.25;5.47;;;;;29.60;101390.00;;;;12781054;22;20208;-75
2022/08/31 15:22:10;;;;;;;9.13;4.15;;;;;28.80;101384.00;;;;12817737;22;20174;-77
2022/08/31 15:27:14;;;;;;;7.47;3.88;;;;;28.10;101392.00;;;;12784248;22;20708;-76
2022/08/31 15:32:16;;;;;;;5.57;3.92;;;;;27.50;101394.00;;;;12808875;22;20253;-76
2022/08/31 15:37:18;;;;;;;8.70;3.83;;;;;27.30;101394.00;;;;12808957;22;20201;-76
2022/08/31 15:42:20;;;;;;;5.15;3.60;;;;;27.20;101390.00;;;;12849176;22;20162;-76
2022/08/31 15:52:46;;;;;;;6.78;3.38;;;;;26.80;101393.00;;;;12858273;22;20174;-77
2022/08/31 15:57:54;;;;;;;3.83;3.33;;;;;26.70;101388.00;;;;12810917;22;20166;-77
2022/08/31 16:02:56;;;;;;;5.90;3.80;;;;;26.80;101388.00;;;;12785142;22;20178;-77
2022/08/31 16:07:57;;;;;;;8.95;3.67;;;;;26.90;101393.00;;;;12834721;22;20676;-77
2022/08/31 16:13:01;;;;;;;5.03;3.60;;;;;26.70;101384.00;;;;12831521;22;20163;-76
2022/08/31 16:18:04;;;;;;;6.57;4.32;;;;;26.50;101390.00;;;;12784240;22;20166;-77
2022/08/31 16:23:06;;;;;;;6.68;3.97;;;;;26.30;101376.00;;;;12808618;22;20260;-76
2022/08/31 16:28:08;;;;;;;5.10;3.85;;;;;26.30;101364.00;;;;12856608;22;20197;-77
2022/08/31 16:33:10;;;;;;;5.63;4.07;;;;;26.40;101369.00;;;;12831082;22;20241;-77
2022/08/31 16:38:13;;;;;;;8.50;3.60;;;;;26.70;101360.00;;;;12835670;22;20194;-77
2022/08/31 16:43:14;;;;;;;6.47;3.67;;;;;26.30;101357.00;;;;12810901;22;20185;-77
2022/08/31 16:53:35;;;;;;;10.13;4.53;;;;;25.30;101357.00;;;;12854095;22;20162;-76
2022/08/31 16:58:37;;;;;;;8.13;4.50;;;;;25.20;101351.00;;;;12781497;22;20178;-76
2022/08/31 17:03:57;;;;;;;7.90;4.20;;;;;25.10;101349.00;;;;12787408;22;20174;-76
2022/08/31 17:09:07;;;;;;;4.97;4.32;;;;;25.10;101357.00;;;;12807079;22;20244;-76
2022/08/31 17:14:11;;;;;;;4.95;3.95;;;;;25.00;101357.00;;;;12801952;22;20166;-76
2022/08/31 17:19:13;;;;;;;4.85;3.97;;;;;24.90;101360.00;;;;12803641;22;20208;-76
2022/08/31 17:24:27;;;;;;;6.18;3.70;;;;;24.80;101367.00;;;;12804827;22;20685;-77
2022/08/31 17:29:33;;;;;;;7.47;4.10;;;;;24.60;101369.00;;;;12809053;22;20274;-76
2022/08/31 17:34:50;;;;;;;8.07;3.85;;;;;24.50;101367.00;;;;12854868;22;20232;-76
2022/08/31 17:39:52;;;;;;;7.93;4.30;;;;;24.40;101371.00;;;;12784513;22;20217;-77
2022/08/31 17:44:55;;;;;;;4.57;3.80;;;;;24.20;101374.00;;;;12855604;22;20170;-77
2022/08/31 17:49:56;;;;;;;7.70;4.28;;;;;24.10;101384.00;;;;12831684;22;20190;-76
2022/08/31 17:55:00;;;;;;;6.20;3.63;;;;;24.00;101384.00;;;;12809534;22;20174;-76
2022/08/31 18:00:03;;;;;;;6.28;4.55;;;;;23.80;101384.00;;;;12808914;22;20787;-77
2022/08/31 18:05:10;;;;;;;5.72;3.58;;;;;23.60;101384.00;;;;12783790;22;20713;-76
2022/08/31 18:10:13;;;;;;;10.20;4.30;;;;;23.40;101390.00;;;;12784048;22;20194;-77
2022/08/31 18:15:17;;;;;;;6.82;3.42;;;;;23.20;101386.00;;;;12852510;22;20170;-76
2022/08/31 18:20:19;;;;;;;5.68;3.97;;;;;23.00;101400.00;;;;12828449;22;20273;-77
2022/08/31 18:25:20;;;;;;;6.30;3.90;;;;;22.80;101401.00;;;;12782066;22;20861;-76
2022/08/31 18:30:21;;;;;;;6.72;4.00;;;;;22.70;101402.00;;;;12851697;22;20249;-76
2022/08/31 18:35:28;;;;;;;7.07;4.45;;;;;22.50;101404.00;;;;12797576;22;20715;-76
2022/08/31 18:45:50;;;;;;;9.85;4.00;;;;;22.20;101421.00;;;;12827341;22;20239;-76
2022/08/31 18:50:53;;;;;;;7.28;4.07;;;;;22.00;101427.00;;;;12779930;22;20166;-76
2022/08/31 18:56:08;;;;;;;10.10;4.53;;;;;21.90;101422.00;;;;12833950;22;20309;-76
2022/08/31 19:01:11;;;;;;;8.45;4.80;;;;;21.80;101429.00;;;;12786087;22;20661;-76
2022/08/31 19:06:22;;;;;;;12.52;5.40;;;;;21.80;101440.00;;;;12808743;22;20709;-76
2022/08/31 19:11:23;;;;;;;8.95;5.57;;;;;21.70;101445.00;;;;12805209;22;20250;-76
2022/08/31 19:16:27;;;;;;;10.85;5.50;;;;;21.60;101441.00;;;;12830581;22;20174;-76
2022/08/31 19:21:32;;;;;;;10.50;6.13;;;;;21.50;101446.00;;;;12809468;22;20174;-77
2022/08/31 19:26:52;;;;;;;11.77;7.03;;;;;21.30;101446.00;;;;12858629;22;20191;-77
2022/08/31 19:31:55;;;;;;;13.57;6.50;;;;;21.30;101449.00;;;;12827346;22;20250;-77
2022/08/31 19:36:58;;;;;;;8.40;6.78;;;;;21.30;101455.00;;;;12857693;22;20178;-77
2022/08/31 19:42:04;;;;;;;9.00;6.85;;;;;21.30;101454.00;;;;12787239;22;20194;-76
2022/08/31 19:47:06;;;;;;;11.18;6.40;;;;;21.20;101448.00;;;;12812155;22;20190;-77
2022/08/31 19:52:08;;;;;;;11.55;6.88;;;;;21.20;101459.00;;;;12788172;22;20166;-77
2022/08/31 19:57:09;;;;;;;9.23;6.10;;;;;21.20;101457.00;;;;12762935;22;20898;-77
2022/08/31 20:02:12;;;;;;;12.25;7.50;;;;;21.20;101461.00;;;;12811145;22;20170;-76
2022/08/31 20:07:14;;;;;;;12.82;7.72;;;;;21.20;101462.00;;;;12809133;22;20189;-77
2022/08/31 20:12:17;;;;;;;12.60;7.78;;;;;21.10;101457.00;;;;12812959;22;20170;-77
2022/08/31 20:17:19;;;;;;;15.10;7.72;;;;;21.10;101454.00;;;;12831812;22;20163;-76
2022/08/31 20:22:22;;;;;;;10.15;6.70;;;;;21.00;101458.00;;;;12787282;22;20178;-77
2022/08/31 20:27:27;;;;;;;11.40;5.95;;;;;20.90;101465.00;;;;12812392;22;20279;-77
2022/08/31 20:32:28;;;;;;;11.80;5.25;;;;;20.70;101450.00;;;;12836453;22;20174;-77
2022/08/31 20:37:30;;;;;;;7.72;4.72;;;;;20.60;101453.00;;;;12834574;22;20267;-77
2022/08/31 20:42:32;;;;;;;6.10;4.57;;;;;20.50;101447.00;;;;12812952;22;20178;-77
2022/08/31 20:52:55;;;;;;;8.30;3.85;;;;;20.50;101460.00;;;;12868888;22;20186;-77
2022/08/31 20:57:57;;;;;;;3.67;3.10;;;;;20.40;101449.00;;;;12795579;22;20782;-77
2022/08/31 21:03:02;;;;;;;6.55;3.00;;;;;20.30;101446.00;;;;12840852;22;20684;-78
2022/08/31 21:08:04;;;;;;;5.53;2.83;;;;;20.30;101447.00;;;;12840634;22;20186;-78
2022/08/31 21:13:08;;;;;;;3.33;2.97;;;;;20.20;101451.00;;;;12795267;22;20494;-77
2022/08/31 21:18:11;;;;;;;6.97;2.95;;;;;20.20;101454.00;;;;12817149;22;20657;-77
2022/08/31 21:23:12;;;;;;;6.00;2.83;;;;;20.10;101451.00;;;;12843238;22;20166;-77
2022/08/31 21:28:15;;;;;;;7.60;2.85;;;;;20.10;101457.00;;;;12819181;22;20198;-77
2022/08/31 21:33:17;;;;;;;7.30;2.83;;;;;20.00;101454.00;;;;12865978;22;20166;-77
2022/08/31 21:38:19;;;;;;;4.25;2.30;;;;;20.00;101456.00;;;;12816779;22;20257;-78
2022/08/31 21:43:21;;;;;;;3.08;2.40;;;;;19.90;101454.00;;;;12795422;22;20189;-78
2022/08/31 21:48:22;;;;;;;5.35;2.47;;;;;19.80;101462.00;;;;12811738;22;20194;-77
2022/08/31 21:53:27;;;;;;;6.32;3.00;;;;;19.80;101454.00;;;;12811081;22;20819;-77
2022/08/31 21:58:28;;;;;;;5.05;2.88;;;;;19.70;101466.00;;;;12810915;23;20205;-77
2022/08/31 22:03:34;;;;;;;3.50;2.90;;;;;19.60;101455.00;;;;12857309;22;20253;-77
2022/08/31 22:08:37;;;;;;;3.92;3.17;;;;;19.50;101459.00;;;;12812602;22;20760;-76
2022/08/31 22:13:42;;;;;;;4.38;2.85;;;;;19.40;101467.00;;;;12858418;22;20224;-77
2022/08/31 22:18:49;;;;;;;5.07;3.10;;;;;19.30;101467.00;;;;12811639;22;20176;-78
2022/08/31 22:24:09;;;;;;;5.05;3.22;;;;;19.20;101459.00;;;;12790250;22;20181;-76
2022/08/31 22:29:20;;;;;;;7.47;3.70;;;;;19.10;101469.00;;;;12812891;22;20288;-77
2022/08/31 22:34:22;;;;;;;6.18;2.67;;;;;18.90;101478.00;;;;12788779;22;20644;-77
2022/08/31 22:39:27;;;;;;;6.72;3.22;;;;;18.80;101477.00;;;;12789497;22;20267;-77
2022/08/31 22:44:32;;;;;;;9.02;3.17;;;;;18.80;101468.00;;;;12761989;22;20543;-76
2022/08/31 22:49:34;;;;;;;8.68;3.15;;;;;18.70;101468.00;;;;12784253;22;20506;-78
2022/08/31 22:54:35;;;;;;;4.72;3.60;;;;;18.70;101462.00;;;;12764733;23;20170;-77
2022/08/31 22:59:37;;;;;;;5.75;3.22;;;;;18.60;101456.00;;;;12788836;22;20193;-77
2022/08/31 23:04:42;;;;;;;5.30;3.25;;;;;18.50;101465.00;;;;12837102;22;20751;-77
2022/08/31 23:09:44;;;;;;;8.23;3.50;;;;;18.50;101465.00;;;;12814591;22;20217;-78
2022/08/31 23:14:46;;;;;;;5.38;3.40;;;;;18.40;101464.00;;;;12790245;22;20178;-78
2022/08/31 23:19:49;;;;;;;5.35;3.00;;;;;18.30;101467.00;;;;12766630;23;20178;-78
2022/08/31 23:24:50;;;;;;;6.65;3.10;;;;;18.20;101463.00;;;;12791816;22;20175;-77
2022/08/31 23:29:57;;;;;;;8.57;2.92;;;;;18.00;101470.00;;;;12839388;22;20198;-78
2022/08/31 23:35:01;;;;;;;10.63;2.83;;;;;17.90;101459.00;;;;12792164;22;20197;-77
2022/08/31 23:40:05;;;;;;;8.77;3.55;;;;;17.80;101465.00;;;;12839819;22;20220;-77
2022/08/31 23:45:09;;;;;;;7.90;2.80;;;;;17.60;101455.00;;;;12794033;22;20182;-77
2022/08/31 23:50:13;;;;;;;7.07;3.25;;;;;17.50;101458.00;;;;12793705;22;20201;-77
2022/08/31 23:55:14;;;;;;;7.13;3.47;;;;;17.40;101445.00;;;;12817348;22;20170;-78
